• Join FlightAware (Why Join?)
  • Login
  • US Flag 
06:12AM EDT


 

Airport Tracker/Info


-or-


 

Live Flight TrackerFlight Track Log ✈ AWE2783 ✈ 07-May-2013 ✈ KCLT - KSAV

Flight Track Log - Related Links

Times and Time Zones

All times are in EDT time to prevent confusion due to time zone crossing. See the AWE2783 flight status page for this flight to view local times or setup timezone preferences in your user account.

Time Position Orientation Groundspeed Altitude Reporting Facility
EDT Latitude Longitude Course Direction KTS MPH feet Rate Location/Type
07:28PM 35.2306 -80.9392 12° North 157 181 2,000  Level Atlanta Center
07:29PM 35.2636 -80.9306 12° North 200 230 3,100 2,280 Climbing Atlanta Center
07:30PM 35.3017 -80.8628 55° Northeast 302 348 6,000 3,060 Climbing Atlanta Center
07:30PM 35.2569 -80.8264 146° Southeast 281 323 8,300 3,300 Climbing Atlanta Center
07:31PM 35.2358 -80.8247 176° South 286 329 9,400 2,160 Climbing Atlanta Center
07:31PM 35.1778 -80.8294 184° South 291 335 10,500 1,560 Climbing Atlanta Center
07:32PM 35.0967 -80.8403 186° South 325 374 12,000 1,680 Climbing Atlanta Center
07:33PM 34.9989 -80.8567 188° South 347 399 13,900 2,100 Climbing Atlanta Center
07:34PM 34.8950 -80.8708 186° South 369 425 16,300 2,280 Climbing Atlanta Center
07:37PM 34.6156 -80.8919 184° South 393 452 21,900 1,920 Climbing Jacksonville Center
07:38PM 34.4986 -80.8847 177° South 416 479 23,000 960 Climbing Jacksonville Center
07:39PM 34.3719 -80.9253 195° South 438 504 23,900 1,440 Climbing Jacksonville Center
07:40PM 34.2514 -80.9506 190° South 448 516 25,900 1,020 Climbing Jacksonville Center
07:41PM 34.1283 -80.9633 185° South 448 516 26,000  Climbing Jacksonville Center
07:42PM 34.0014 -80.9786 186° South 453 521 26,000  Level Jacksonville Center
07:43PM 33.8783 -80.9939 186° South 453 521 26,000 -660 Level Jacksonville Center
07:44PM 33.7575 -81.0067 185° South 447 514 24,700 -1,440 Descending Jacksonville Center
07:45PM 33.6431 -81.0214 186° South 447 514 23,200 -1,500 Descending Jacksonville Center
07:46PM 33.5203 -81.0367 186° South 452 520 21,700 -1,500 Descending Jacksonville Center
07:47PM 33.3994 -81.0514 186° South 446 513 20,200 -900 Descending Jacksonville Center
07:48PM 33.2828 -81.0664 186° South 441 507 20,000 -120 Descending Jacksonville Center
07:49PM 33.1597 -81.0811 186° South 441 507 20,000 -960 Level Jacksonville Center
07:50PM 33.0408 -81.0936 185° South 441 507 18,100 -2,460 Descending Jacksonville Center
07:51PM 32.9264 -81.1083 186° South 436 502 15,100 -2,880 Descending Jacksonville Center
07:52PM 32.8158 -81.1228 186° South 423 487 12,400 -2,100 Descending Jacksonville Center
07:53PM 32.7117 -81.1272 182° South 401 461 11,000 -1,260 Descending Jacksonville Center
07:54PM 32.6261 -81.1289 181° South 321 369 9,900 -1,800 Descending Jacksonville Center
07:55PM 32.5364 -81.1306 181° South 295 339 7,500 -1,980 Descending Jacksonville Center
07:56PM 32.4592 -81.1322 181° South 279 321 6,000 -1,800 Descending Jacksonville Center
07:57PM 32.3861 -81.1311 179° South 267 307 4,000 -1,620 Descending Jacksonville Center
07:58PM 32.3214 -81.1325 181° South 267 307 2,800 -1,020 Descending Jacksonville Center
07:59PM 32.2483 -81.1364 183° South 267 307 2,000 -660 Descending Jacksonville Center
08:00PM 32.1858 -81.1375 181° South 233 268 1,600 -480 Descending Jacksonville Center
08:01PM 32.1419 -81.1456 189° South 188 216 1,100 -540 Descending Jacksonville Center
08:03PM 32.1167 -81.2000 180° South  Level FlightAware Approximate
08:10PM 32.1276 -81.2021 180° South  Level Estimated
08:11PM 32.1276 -81.2021 180° South  Level Estimated
08:12PM 32.1276 -81.2021 180° South  Level Estimated